createdAt,value
2023-01-22T00:01:28.431Z,10.53
2023-01-22T00:04:15.315Z,6.03
2023-01-22T00:07:02.189Z,5.67
2023-01-22T00:09:49.447Z,7.50
2023-01-22T00:12:39.329Z,6.40
2023-01-22T00:15:26.358Z,6.07
2023-01-22T00:18:14.098Z,7.60
2023-01-22T00:21:01.129Z,11.77
2023-01-22T00:23:47.915Z,5.73
2023-01-22T00:26:34.856Z,6.23
2023-01-22T00:29:22.868Z,6.43
2023-01-22T00:32:09.958Z,6.23
2023-01-22T00:34:56.960Z,11.53
2023-01-22T00:37:43.994Z,6.03
2023-01-22T00:40:31.166Z,9.73
2023-01-22T00:43:17.606Z,5.60
2023-01-22T00:46:06.045Z,8.67
2023-01-22T00:48:52.962Z,7.00
2023-01-22T00:51:40.098Z,8.23
2023-01-22T00:54:26.843Z,7.93
2023-01-22T00:57:13.508Z,7.17
2023-01-22T01:00:00.199Z,7.33
2023-01-22T01:03:11.674Z,4.90
2023-01-22T01:06:00.828Z,5.60
2023-01-22T01:08:48.611Z,5.73
2023-01-22T01:11:35.559Z,5.37
2023-01-22T01:14:22.345Z,6.57
2023-01-22T01:17:09.194Z,5.83
2023-01-22T01:19:57.608Z,5.20
2023-01-22T01:22:44.305Z,6.60
2023-01-22T01:25:31.035Z,4.63
2023-01-22T01:28:17.788Z,5.40
2023-01-22T01:31:05.583Z,7.80
2023-01-22T01:33:52.545Z,6.20
2023-01-22T01:36:48.689Z,6.53
2023-01-22T01:39:36.502Z,5.57
2023-01-22T01:42:29.727Z,6.87
2023-01-22T01:45:26.417Z,7.17
2023-01-22T01:48:25.028Z,7.30
2023-01-22T01:51:15.618Z,4.70
2023-01-22T01:54:05.394Z,4.07
2023-01-22T01:56:55.496Z,8.00
2023-01-22T01:59:44.197Z,6.43
2023-01-22T02:02:31.312Z,6.60
2023-01-22T02:05:20.629Z,8.83
2023-01-22T02:08:09.759Z,10.40
2023-01-22T02:10:58.325Z,11.63
2023-01-22T02:13:51.395Z,12.27
2023-01-22T02:16:38.605Z,7.97
2023-01-22T02:19:25.589Z,9.03
2023-01-22T02:22:15.188Z,10.10
2023-01-22T02:25:02.228Z,13.10
2023-01-22T02:27:49.114Z,16.07
2023-01-22T02:30:35.899Z,12.83
2023-01-22T02:33:23.023Z,15.53
2023-01-22T02:36:10.231Z,15.67
2023-01-22T02:38:58.594Z,10.60
2023-01-22T02:41:46.083Z,10.50
2023-01-22T02:44:33.032Z,11.50
2023-01-22T02:47:20.246Z,8.10
2023-01-22T02:50:07.803Z,8.00
2023-01-22T02:52:54.704Z,8.33
2023-01-22T02:55:44.993Z,10.60
2023-01-22T02:58:31.880Z,8.50
2023-01-22T03:01:20.736Z,10.13
2023-01-22T03:04:11.049Z,11.20
2023-01-22T03:06:58.325Z,11.83
2023-01-22T03:09:45.539Z,7.30
2023-01-22T03:12:51.029Z,6.00
2023-01-22T03:15:57.641Z,6.40
2023-01-22T03:19:02.197Z,7.83
2023-01-22T03:21:48.853Z,11.40
2023-01-22T03:24:35.873Z,4.33
2023-01-22T03:27:24.492Z,9.07
2023-01-22T03:30:13.982Z,6.07
2023-01-22T03:33:00.634Z,7.43
2023-01-22T03:35:47.436Z,6.40
2023-01-22T03:38:34.790Z,5.93
2023-01-22T03:41:21.921Z,5.73
2023-01-22T03:44:11.767Z,4.47
2023-01-22T03:47:00.555Z,4.90
2023-01-22T03:49:47.474Z,5.30
2023-01-22T03:52:34.113Z,5.57
2023-01-22T03:55:21.374Z,6.57
2023-01-22T03:58:08.340Z,6.47
2023-01-22T04:00:57.802Z,5.23
2023-01-22T04:03:46.603Z,5.57
2023-01-22T04:06:33.769Z,5.90
2023-01-22T04:09:20.905Z,3.63
2023-01-22T04:12:08.246Z,5.33
2023-01-22T04:14:55.418Z,6.27
2023-01-22T04:17:42.485Z,7.83
2023-01-22T04:20:30.576Z,6.33
2023-01-22T04:23:17.570Z,4.87
2023-01-22T04:26:04.968Z,6.87
2023-01-22T04:28:52.650Z,4.37
2023-01-22T04:31:39.463Z,5.20
2023-01-22T04:34:26.913Z,4.60
2023-01-22T04:37:14.994Z,6.53
2023-01-22T04:40:01.674Z,5.23
2023-01-22T04:42:48.584Z,5.80
2023-01-22T04:45:35.491Z,6.27
2023-01-22T04:48:22.105Z,5.27
2023-01-22T04:51:09.340Z,5.63
2023-01-22T04:53:57.725Z,5.30
2023-01-22T04:56:44.654Z,6.17
2023-01-22T04:59:31.948Z,5.33
2023-01-22T05:02:19.002Z,7.63
2023-01-22T05:05:06.750Z,8.90
2023-01-22T05:07:54.101Z,5.83
2023-01-22T05:10:42.112Z,6.13
2023-01-22T05:13:28.775Z,6.20
2023-01-22T05:16:15.607Z,4.60
2023-01-22T05:19:02.785Z,7.53
2023-01-22T05:21:49.537Z,6.73
2023-01-22T05:24:36.275Z,5.70
2023-01-22T05:27:24.413Z,5.27
2023-01-22T05:30:12.688Z,3.77
2023-01-22T05:32:59.833Z,9.57
2023-01-22T05:35:46.831Z,5.50
2023-01-22T05:38:34.096Z,6.63
2023-01-22T05:41:21.362Z,5.03
2023-01-22T05:44:11.585Z,5.50
2023-01-22T05:46:58.849Z,12.13
2023-01-22T05:49:45.250Z,6.90
2023-01-22T05:52:32.049Z,4.90
2023-01-22T05:55:19.136Z,4.87
2023-01-22T05:58:06.471Z,5.70
2023-01-22T06:00:55.307Z,7.33
2023-01-22T06:03:43.587Z,6.17
2023-01-22T06:06:30.391Z,8.27
2023-01-22T06:09:17.590Z,4.93
2023-01-22T06:12:04.527Z,5.33
2023-01-22T06:14:53.140Z,7.10
2023-01-22T06:17:41.345Z,5.33
2023-01-22T06:20:27.896Z,5.83
2023-01-22T06:23:14.763Z,5.23
2023-01-22T06:26:03.503Z,9.87
2023-01-22T06:28:50.414Z,6.27
2023-01-22T06:31:37.569Z,8.60
2023-01-22T06:34:26.231Z,8.67
2023-01-22T06:37:13.376Z,13.13
2023-01-22T06:40:00.408Z,8.77
2023-01-22T06:42:47.659Z,9.37
2023-01-22T06:45:34.961Z,9.37
2023-01-22T06:48:22.317Z,11.37
2023-01-22T06:51:10.798Z,6.47
2023-01-22T06:53:58.104Z,12.67
2023-01-22T06:56:45.072Z,11.53
2023-01-22T06:59:31.926Z,12.40
2023-01-22T07:02:19.924Z,15.43
2023-01-22T07:05:07.460Z,13.37
2023-01-22T07:07:56.069Z,11.33
2023-01-22T07:10:43.251Z,7.90
2023-01-22T07:13:30.052Z,8.57
2023-01-22T07:16:17.030Z,6.93
2023-01-22T07:19:04.141Z,10.23
2023-01-22T07:21:51.182Z,9.43
2023-01-22T07:24:39.609Z,7.30
2023-01-22T07:27:26.492Z,12.93
2023-01-22T07:30:14.416Z,9.40
2023-01-22T07:33:01.938Z,7.53
2023-01-22T07:35:55.554Z,7.50
2023-01-22T07:38:42.188Z,7.43
2023-01-22T07:41:30.807Z,8.90
2023-01-22T07:44:17.644Z,5.33
2023-01-22T07:47:07.280Z,7.57
2023-01-22T07:49:54.053Z,7.03
2023-01-22T07:52:41.060Z,6.23
2023-01-22T07:55:28.484Z,7.13
2023-01-22T07:58:16.935Z,6.47
2023-01-22T08:01:07.082Z,5.33
2023-01-22T08:03:54.153Z,5.10
2023-01-22T08:06:41.211Z,6.53
2023-01-22T08:09:28.015Z,4.63
2023-01-22T08:12:14.853Z,9.43
2023-01-22T08:15:02.809Z,6.53
2023-01-22T08:17:51.279Z,9.80
2023-01-22T08:20:38.273Z,9.83
2023-01-22T08:23:25.272Z,7.13
2023-01-22T08:26:15.218Z,5.17
2023-01-22T08:29:05.401Z,6.23
2023-01-22T08:31:56.073Z,6.27
2023-01-22T08:34:42.934Z,5.40
2023-01-22T08:37:29.549Z,6.83
2023-01-22T08:40:17.322Z,6.93
2023-01-22T08:43:04.596Z,7.53
2023-01-22T08:45:51.498Z,5.00
2023-01-22T08:48:41.805Z,5.40
2023-01-22T08:51:28.757Z,4.83
2023-01-22T08:54:15.429Z,9.03
2023-01-22T08:57:02.206Z,7.33
2023-01-22T09:00:00.504Z,7.40
2023-01-22T09:02:48.043Z,4.20
2023-01-22T09:05:35.921Z,7.17
2023-01-22T09:08:22.891Z,6.33
2023-01-22T09:11:11.411Z,7.63
2023-01-22T09:13:58.591Z,5.33
2023-01-22T09:16:45.283Z,4.93
2023-01-22T09:19:32.461Z,4.53
2023-01-22T09:22:20.835Z,4.53
2023-01-22T09:25:08.525Z,3.43
2023-01-22T09:27:59.831Z,5.33
2023-01-22T09:30:46.589Z,5.70
2023-01-22T09:33:34.068Z,5.87
2023-01-22T09:36:21.074Z,4.70
2023-01-22T09:39:09.112Z,4.33
2023-01-22T09:41:58.155Z,3.63
2023-01-22T09:44:48.155Z,4.97
2023-01-22T09:47:41.553Z,17.83
2023-01-22T09:50:31.071Z,5.30
2023-01-22T09:53:21.493Z,6.13
2023-01-22T09:56:20.913Z,2.13
2023-01-22T09:59:13.578Z,4.60
2023-01-22T10:02:05.109Z,5.97
2023-01-22T10:04:55.184Z,6.23
2023-01-22T10:07:53.631Z,7.27
2023-01-22T10:10:40.945Z,5.40
2023-01-22T10:13:31.372Z,5.73
2023-01-22T10:16:18.416Z,3.67
2023-01-22T10:19:14.056Z,8.17
2023-01-22T10:22:03.544Z,3.23
2023-01-22T10:24:50.376Z,4.43
2023-01-22T10:27:40.048Z,5.17
2023-01-22T10:30:30.707Z,2.87
2023-01-22T10:33:22.063Z,2.13
2023-01-22T10:36:14.978Z,5.83
2023-01-22T10:39:13.397Z,3.17
2023-01-22T10:42:03.285Z,4.73
2023-01-22T10:44:51.088Z,3.13
2023-01-22T10:47:39.321Z,2.20
2023-01-22T10:50:26.402Z,2.57
2023-01-22T10:53:31.476Z,3.10
2023-01-22T10:56:31.525Z,3.83
2023-01-22T10:59:23.088Z,5.33
2023-01-22T11:02:18.024Z,3.13
2023-01-22T11:05:19.530Z,4.33
2023-01-22T11:08:12.412Z,3.20
2023-01-22T11:11:03.258Z,4.07
2023-01-22T11:13:56.699Z,3.80
2023-01-22T11:16:45.047Z,1.97
2023-01-22T11:19:40.525Z,4.00
2023-01-22T11:22:34.799Z,3.17
2023-01-22T11:25:21.992Z,4.07
2023-01-22T11:28:22.819Z,3.57
2023-01-22T11:31:25.746Z,3.43
2023-01-22T11:34:43.943Z,2.50
2023-01-22T11:37:45.716Z,5.43
2023-01-22T11:40:35.352Z,3.00
2023-01-22T11:43:33.341Z,2.10
2023-01-22T11:46:34.665Z,4.00
2023-01-22T11:49:32.813Z,1.00
2023-01-22T11:52:31.084Z,3.60
2023-01-22T11:55:46.185Z,2.27
2023-01-22T11:58:42.244Z,2.37
2023-01-22T12:01:43.741Z,2.43
2023-01-22T12:04:54.165Z,2.80
2023-01-22T12:08:06.715Z,1.97
2023-01-22T12:11:16.600Z,3.67
2023-01-22T12:14:33.554Z,2.10
2023-01-22T12:17:33.419Z,1.80
2023-01-22T12:20:41.779Z,1.17
2023-01-22T12:23:34.490Z,2.87
2023-01-22T12:26:26.237Z,3.37
2023-01-22T12:29:17.618Z,4.60
2023-01-22T12:32:11.021Z,5.27
2023-01-22T12:35:04.873Z,2.77
2023-01-22T12:37:58.081Z,4.87
2023-01-22T12:41:19.553Z,6.40
2023-01-22T12:44:21.310Z,5.77
2023-01-22T12:47:16.294Z,4.37
2023-01-22T12:50:04.847Z,3.33
2023-01-22T12:53:00.924Z,5.10
2023-01-22T12:55:59.357Z,3.37
2023-01-22T12:58:57.727Z,3.00
2023-01-22T13:01:46.283Z,5.43
2023-01-22T13:04:34.840Z,4.40
2023-01-22T13:07:24.061Z,4.73
2023-01-22T13:10:25.854Z,2.93
2023-01-22T13:13:23.236Z,5.20
2023-01-22T13:16:21.154Z,3.67
2023-01-22T13:19:21.798Z,2.57
2023-01-22T13:22:14.926Z,3.03
2023-01-22T13:25:01.799Z,2.80
2023-01-22T13:27:48.883Z,5.63
2023-01-22T13:30:35.757Z,3.70
2023-01-22T13:33:23.362Z,3.30
2023-01-22T13:36:14.537Z,3.87
2023-01-22T13:39:01.487Z,4.50
2023-01-22T13:41:52.232Z,3.57
2023-01-22T13:44:42.674Z,3.20
2023-01-22T13:47:32.961Z,5.00
2023-01-22T13:50:21.838Z,5.70
2023-01-22T13:53:20.008Z,2.87
2023-01-22T13:56:08.223Z,3.10
2023-01-22T13:59:06.785Z,5.00
2023-01-22T14:01:53.662Z,6.10
2023-01-22T14:04:40.733Z,3.33
2023-01-22T14:07:30.003Z,4.27
2023-01-22T14:10:21.794Z,3.53
2023-01-22T14:13:10.726Z,5.93
2023-01-22T14:16:06.952Z,5.00
2023-01-22T14:18:54.050Z,4.10
2023-01-22T14:21:41.012Z,8.97
2023-01-22T14:24:28.002Z,3.43
2023-01-22T14:27:16.626Z,8.07
2023-01-22T14:30:03.504Z,5.37
2023-01-22T14:32:50.219Z,5.43
2023-01-22T14:35:37.108Z,7.80
2023-01-22T14:38:24.141Z,7.50
2023-01-22T14:41:11.356Z,4.27
2023-01-22T14:43:59.722Z,7.37
2023-01-22T14:46:46.385Z,8.20
2023-01-22T14:49:34.860Z,6.00
2023-01-22T14:52:21.614Z,3.67
2023-01-22T14:55:09.947Z,5.37
2023-01-22T14:57:57.728Z,5.20
2023-01-22T15:00:46.403Z,4.37
2023-01-22T15:03:34.760Z,8.23
2023-01-22T15:06:21.678Z,5.30
2023-01-22T15:09:08.703Z,4.23
2023-01-22T15:11:55.892Z,7.20
2023-01-22T15:14:42.600Z,8.13
2023-01-22T15:17:30.629Z,5.87
2023-01-22T15:20:18.165Z,7.77
2023-01-22T15:23:05.395Z,4.23
2023-01-22T15:25:58.378Z,5.83
2023-01-22T15:28:45.385Z,7.23
2023-01-22T15:31:32.603Z,4.70
2023-01-22T15:34:21.953Z,5.23
2023-01-22T15:37:09.026Z,6.40
2023-01-22T15:39:56.081Z,4.30
2023-01-22T15:42:42.668Z,4.67
2023-01-22T15:45:33.433Z,5.47
2023-01-22T15:48:20.219Z,8.03
2023-01-22T15:51:12.890Z,5.33
2023-01-22T15:54:01.455Z,4.40
2023-01-22T15:56:48.313Z,6.87
2023-01-22T15:59:38.203Z,6.10
2023-01-22T16:02:25.156Z,7.77
2023-01-22T16:05:13.586Z,4.70
2023-01-22T16:08:02.929Z,9.10
2023-01-22T16:10:50.156Z,10.27
2023-01-22T16:13:37.959Z,8.13
2023-01-22T16:16:26.787Z,6.53
2023-01-22T16:19:14.342Z,9.53
2023-01-22T16:22:01.214Z,7.37
2023-01-22T16:24:49.831Z,6.37
2023-01-22T16:27:36.849Z,6.77
2023-01-22T16:30:23.911Z,8.20
2023-01-22T16:33:21.081Z,5.20
2023-01-22T16:36:10.266Z,6.00
2023-01-22T16:38:57.474Z,4.40
2023-01-22T16:41:48.588Z,5.83
2023-01-22T16:44:35.746Z,5.83
2023-01-22T16:47:22.715Z,5.70
2023-01-22T16:50:10.837Z,8.50
2023-01-22T16:52:57.914Z,6.03
2023-01-22T16:55:44.914Z,4.50
2023-01-22T16:58:33.073Z,4.30
2023-01-22T17:01:19.912Z,5.07
2023-01-22T17:04:06.789Z,5.47
2023-01-22T17:06:55.208Z,4.93
2023-01-22T17:09:42.187Z,5.47
2023-01-22T17:12:29.395Z,6.67
2023-01-22T17:15:18.513Z,8.53
2023-01-22T17:18:05.934Z,6.83
2023-01-22T17:21:01.937Z,9.97
2023-01-22T17:23:49.556Z,6.10
2023-01-22T17:26:36.374Z,8.07
2023-01-22T17:29:23.459Z,3.93
2023-01-22T17:32:11.624Z,7.23
2023-01-22T17:34:58.407Z,5.10
2023-01-22T17:37:45.672Z,6.13
2023-01-22T17:40:33.076Z,6.43
2023-01-22T17:43:19.597Z,5.57
2023-01-22T17:46:11.688Z,11.00
2023-01-22T17:49:04.664Z,7.37
2023-01-22T17:51:51.871Z,6.87
2023-01-22T17:54:39.118Z,13.20
2023-01-22T17:57:25.877Z,14.27
2023-01-22T18:00:13.976Z,4.60
2023-01-22T18:03:00.884Z,5.67
2023-01-22T18:05:54.540Z,7.03
2023-01-22T18:08:42.426Z,8.00
2023-01-22T18:11:30.766Z,11.10
2023-01-22T18:14:22.230Z,9.43
2023-01-22T18:17:09.299Z,6.83
2023-01-22T18:19:56.056Z,5.23
2023-01-22T18:22:44.397Z,3.77
2023-01-22T18:25:31.062Z,7.33
2023-01-22T18:28:19.854Z,3.60
2023-01-22T18:31:08.629Z,4.93
2023-01-22T18:33:57.339Z,5.10
2023-01-22T18:36:44.348Z,4.73
2023-01-22T18:39:32.555Z,5.30
2023-01-22T18:42:19.669Z,5.10
2023-01-22T18:45:08.134Z,4.53
2023-01-22T18:47:56.198Z,5.23
2023-01-22T18:50:43.671Z,3.90
2023-01-22T18:53:32.821Z,7.10
2023-01-22T18:56:21.816Z,8.10
2023-01-22T18:59:09.370Z,10.37
2023-01-22T19:01:57.545Z,4.77
2023-01-22T19:04:44.297Z,4.03
2023-01-22T19:07:30.994Z,6.77
2023-01-22T19:10:17.812Z,7.20
2023-01-22T19:13:06.368Z,8.47
2023-01-22T19:15:53.379Z,6.90
2023-01-22T19:18:42.465Z,8.23
2023-01-22T19:21:29.760Z,8.00
2023-01-22T19:24:18.612Z,6.43
2023-01-22T19:27:05.983Z,9.03
2023-01-22T19:29:55.260Z,10.20
2023-01-22T19:32:42.462Z,7.33
2023-01-22T19:35:29.664Z,7.37
2023-01-22T19:38:16.627Z,7.50
2023-01-22T19:41:03.902Z,8.03
2023-01-22T19:43:52.257Z,9.07
2023-01-22T19:46:41.333Z,4.77
2023-01-22T19:49:28.622Z,8.60
2023-01-22T19:52:15.641Z,12.20
2023-01-22T19:55:02.768Z,8.80
2023-01-22T19:57:49.571Z,10.03
2023-01-22T20:00:36.722Z,7.97
2023-01-22T20:03:27.213Z,8.13
2023-01-22T20:06:15.489Z,10.23
2023-01-22T20:09:02.445Z,11.13
2023-01-22T20:11:53.557Z,11.63
2023-01-22T20:14:43.395Z,10.27
2023-01-22T20:17:30.291Z,8.33
2023-01-22T20:20:19.224Z,8.43
2023-01-22T20:23:06.056Z,12.13
2023-01-22T20:25:53.721Z,11.13
2023-01-22T20:28:41.025Z,10.50
2023-01-22T20:31:28.309Z,8.90
2023-01-22T20:34:15.601Z,10.13
2023-01-22T20:37:03.943Z,11.87
2023-01-22T20:39:51.077Z,9.87
2023-01-22T20:42:38.053Z,11.43
2023-01-22T20:45:25.048Z,8.97
2023-01-22T20:48:12.090Z,9.23
2023-01-22T20:50:59.350Z,9.90
2023-01-22T20:53:48.724Z,8.33
2023-01-22T20:56:36.562Z,9.23
2023-01-22T20:59:25.522Z,9.07
2023-01-22T21:02:12.674Z,7.47
2023-01-22T21:05:00.202Z,8.80
2023-01-22T21:07:47.184Z,9.17
2023-01-22T21:10:36.077Z,9.17
2023-01-22T21:13:23.670Z,9.83
2023-01-22T21:16:12.191Z,7.80
2023-01-22T21:19:01.126Z,10.03
2023-01-22T21:21:48.233Z,8.00
2023-01-22T21:24:35.080Z,7.50
2023-01-22T21:27:23.375Z,10.07
2023-01-22T21:30:11.943Z,8.97
2023-01-22T21:32:58.913Z,12.40
2023-01-22T21:35:49.571Z,10.00
2023-01-22T21:38:37.323Z,9.80
2023-01-22T21:41:24.374Z,10.50
2023-01-22T21:44:31.789Z,9.33
2023-01-22T21:47:20.320Z,8.27
2023-01-22T21:50:08.378Z,12.50
2023-01-22T21:52:55.366Z,8.87
2023-01-22T21:55:51.074Z,11.17
2023-01-22T21:58:39.801Z,7.97
2023-01-22T22:01:28.457Z,10.17
2023-01-22T22:04:16.152Z,9.67
2023-01-22T22:07:02.815Z,7.00
2023-01-22T22:09:50.234Z,8.10
2023-01-22T22:12:37.010Z,8.03
2023-01-22T22:15:24.326Z,9.77
2023-01-22T22:18:12.673Z,11.60
2023-01-22T22:21:02.452Z,10.10
2023-01-22T22:23:49.620Z,10.37
2023-01-22T22:26:36.884Z,11.23
2023-01-22T22:29:23.867Z,10.07
2023-01-22T22:32:10.888Z,11.60
2023-01-22T22:34:59.431Z,10.67
2023-01-22T22:37:46.068Z,8.37
2023-01-22T22:40:33.004Z,7.37
2023-01-22T22:43:19.913Z,5.60
2023-01-22T22:46:09.464Z,17.63
2023-01-22T22:48:58.408Z,7.67
2023-01-22T22:51:47.353Z,11.30
2023-01-22T22:54:34.634Z,9.00
2023-01-22T22:57:21.509Z,9.20
2023-01-22T23:00:13.306Z,10.33
2023-01-22T23:03:00.347Z,8.60
2023-01-22T23:05:47.142Z,9.63
2023-01-22T23:08:36.002Z,7.63
2023-01-22T23:11:25.875Z,8.43
2023-01-22T23:14:13.114Z,9.37
2023-01-22T23:17:00.229Z,8.47
2023-01-22T23:19:47.283Z,11.30
2023-01-22T23:22:33.905Z,9.33
2023-01-22T23:25:22.129Z,8.77
2023-01-22T23:28:08.985Z,8.93
2023-01-22T23:30:56.394Z,8.83
2023-01-22T23:33:43.851Z,8.47
2023-01-22T23:36:32.716Z,8.07
2023-01-22T23:39:21.328Z,9.03
2023-01-22T23:42:10.481Z,6.40
2023-01-22T23:44:57.362Z,6.70
2023-01-22T23:47:44.540Z,7.50
2023-01-22T23:50:31.902Z,7.30
2023-01-22T23:53:19.253Z,7.23
2023-01-22T23:56:07.512Z,5.63
2023-01-22T23:58:56.878Z,6.97
